HKD weather

Hakodate Airport
Hakodate, Hokkaidō Prefecture, Japan

Public forecast

Using degrees Celsius for public forecast. Weather courtesy of forecast.io.

METAR (pilot weather report)

Retrieved 2019/03/26 22:01 UTC (5 minutes ago):

RJCH 262201Z 29016G29KT 270V330 9999 FEW015 SCT030 BKN050 03/M06 Q1008 RMK 1ST015 3CU030 5CU050 A2977

TAF (pilot weather forecast)

Retrieved 2019/03/26 18:00 UTC (4 hours ago):

TAF RJCH 261715Z 2618/2800 29025G35KT 9999 FEW015 BKN030 BECMG 2712/2715 31013KT